Time;durP1;ratioP1;P1;durP2;ratioP2;P2;SDS_P1;SDS_P2;PMS_P1;PMS_P2;Temp;Humidity;BMP_temperature;BMP_pressure;BME280_temperature;BME280_humidity;BME280_pressure;Samples;Min_cycle;Max_cycle;Signal;HPM_P1;HPM_P2
2021/04/04 00:00:07;;;;;;;5.43;2.88;;;;;;;4.53;66.09;98157.56;5045352;28;20030;-88
2021/04/04 00:02:33;;;;;;;5.15;3.45;;;;;;;4.44;66.52;98164.47;5045157;28;20040;-88
2021/04/04 00:04:58;;;;;;;4.05;2.97;;;;;;;4.44;66.78;98164.47;5026646;28;20089;-88
2021/04/04 00:07:24;;;;;;;6.28;3.92;;;;;;;4.33;66.69;98141.84;5044092;28;20040;-86
2021/04/04 00:09:50;;;;;;;9.40;4.18;;;;;;;4.19;66.23;98127.88;5043348;28;20025;-86
2021/04/04 00:12:15;;;;;;;5.68;3.25;;;;;;;4.38;66.27;98157.38;5042691;28;20053;-88
2021/04/04 00:14:41;;;;;;;5.07;2.88;;;;;;;4.28;66.64;98141.81;5038220;28;20029;-88
2021/04/04 00:17:06;;;;;;;8.07;3.63;;;;;;;4.33;66.92;98163.50;5038734;28;20037;-88
2021/04/04 00:19:32;;;;;;;4.70;3.10;;;;;;;4.22;67.18;98159.03;5021521;28;20020;-88
2021/04/04 00:21:57;;;;;;;11.63;3.70;;;;;;;4.36;66.95;98164.91;5038839;28;20055;-88
2021/04/04 00:24:22;;;;;;;5.38;2.70;;;;;;;4.23;66.92;98142.53;5028047;28;20029;-87
2021/04/04 00:26:48;;;;;;;5.40;3.40;;;;;;;4.29;66.67;98144.25;5044623;28;20141;-87
2021/04/04 00:29:13;;;;;;;6.22;3.60;;;;;;;4.21;66.30;98138.44;5045568;28;20021;-86
2021/04/04 00:31:39;;;;;;;5.05;3.25;;;;;;;4.38;65.84;98154.66;5045663;28;20486;-87
2021/04/04 00:34:05;;;;;;;4.07;3.15;;;;;;;4.31;65.81;98158.38;5044446;28;20390;-87
2021/04/04 00:36:31;;;;;;;4.95;2.88;;;;;;;4.24;66.53;98136.06;5045801;28;20021;-86
2021/04/04 00:38:56;;;;;;;5.70;3.45;;;;;;;4.27;66.31;98143.69;5045159;28;20040;-89
2021/04/04 00:41:22;;;;;;;6.22;3.83;;;;;;;4.31;66.86;98158.38;5046575;28;20032;-89
2021/04/04 00:43:47;;;;;;;5.07;3.17;;;;;;;4.13;66.84;98147.84;5028113;28;20033;-87
2021/04/04 00:46:13;;;;;;;4.22;2.90;;;;;;;3.98;67.35;98144.88;5058171;28;20081;-86
2021/04/04 00:48:38;;;;;;;;;;;;;;;3.91;67.99;98149.66;5055486;28;20025;-88
2021/04/04 00:51:04;;;;;;;4.50;3.17;;;;;;;3.90;68.22;98139.09;5053292;28;19924;-88
2021/04/04 00:53:30;;;;;;;5.97;3.35;;;;;;;4.01;67.89;98138.97;5054956;28;20037;-88
2021/04/04 00:55:55;;;;;;;;;;;;;;;4.07;67.75;98153.41;5050448;28;20017;-87
2021/04/04 00:58:21;;;;;;;6.82;2.80;;;;;;;3.98;68.02;98155.72;5054064;28;19913;-86
2021/04/04 01:00:46;;;;;;;6.28;3.92;;;;;;;3.76;68.46;98146.72;5038247;28;20034;-87
2021/04/04 01:03:12;;;;;;;5.95;3.00;;;;;;;3.71;69.11;98162.88;5042274;28;20061;-87
2021/04/04 01:05:46;;;;;;;4.68;3.40;;;;;;;3.73;69.01;98166.13;5035494;28;20030;-86
2021/04/04 01:08:12;;;;;;;8.80;4.15;;;;;;;3.84;68.70;98156.31;5018185;28;20022;-85
2021/04/04 01:10:42;;;;;;;5.45;3.17;;;;;;;3.78;69.19;98150.00;5019644;28;20042;-84
2021/04/04 01:13:29;;;;;;;7.78;4.18;;;;;;;3.75;70.08;98158.63;5017007;28;20042;-85
2021/04/04 01:16:06;;;;;;;5.90;3.40;;;;;;;3.81;70.36;98157.63;5016891;28;20033;-85
2021/04/04 01:18:34;;;;;;;5.03;2.92;;;;;;;3.81;70.40;98164.91;5034921;28;20112;-87
2021/04/04 01:21:13;;;;;;;6.20;3.67;;;;;;;3.73;70.98;98152.63;5033955;28;20026;-87
2021/04/04 01:24:17;;;;;;;4.28;2.53;;;;;;;3.73;71.33;98153.44;4991690;28;20395;-87
2021/04/04 01:26:48;;;;;;;4.57;3.10;;;;;;;3.81;70.95;98144.09;5016081;28;20034;-87
2021/04/04 01:29:16;;;;;;;4.20;2.50;;;;;;;3.81;71.20;98138.69;4998055;28;20025;-86
2021/04/04 01:31:46;;;;;;;6.25;3.55;;;;;;;3.67;71.79;98121.97;5015627;28;20041;-87
2021/04/04 01:34:15;;;;;;;4.18;3.08;;;;;;;3.68;72.49;98125.50;5015726;28;20026;-85
2021/04/04 01:36:41;;;;;;;5.35;3.83;;;;;;;3.64;73.13;98127.88;5015470;28;20916;-82
2021/04/04 01:39:09;;;;;;;6.43;3.30;;;;;;;3.64;73.19;98132.47;5016897;28;20033;-84
2021/04/04 01:41:40;;;;;;;5.32;3.33;;;;;;;3.60;73.76;98134.03;5016763;28;20483;-86
2021/04/04 01:44:12;;;;;;;5.72;3.78;;;;;;;3.44;74.03;98108.63;5015945;28;20112;-86
2021/04/04 01:46:40;;;;;;;4.70;3.17;;;;;;;3.51;73.87;98101.16;5017108;28;20022;-85
2021/04/04 01:49:06;;;;;;;3.58;2.55;;;;;;;3.70;73.67;98129.59;4999063;28;20045;-87
2021/04/04 01:51:33;;;;;;;4.93;2.92;;;;;;;3.65;73.12;98117.88;5026313;28;20053;-88
2021/04/04 01:54:02;;;;;;;3.88;2.88;;;;;;;3.75;73.21;98123.44;5017487;28;20033;-87
2021/04/04 01:56:32;;;;;;;4.55;2.92;;;;;;;3.56;73.44;98097.72;5026939;28;20022;-88
2021/04/04 01:58:58;;;;;;;4.38;2.65;;;;;;;3.90;71.30;98112.03;5005331;28;20022;-86
2021/04/04 02:01:24;;;;;;;5.15;2.65;;;;;;;3.86;71.19;98114.41;5008217;28;20045;-88
2021/04/04 02:03:50;;;;;;;5.55;3.35;;;;;;;3.66;72.07;98092.47;5042309;28;20048;-88
2021/04/04 02:06:16;;;;;;;4.28;2.90;;;;;;;3.80;72.08;98110.00;5026725;28;20052;-86
2021/04/04 02:08:43;;;;;;;4.25;2.38;;;;;;;3.86;70.92;98127.94;5024795;28;20018;-85
2021/04/04 02:11:17;;;;;;;3.60;2.55;;;;;;;3.82;71.21;98117.88;5030417;28;20030;-87
2021/04/04 02:13:43;;;;;;;5.43;3.00;;;;;;;3.78;72.14;98122.94;5049707;28;20009;-87
2021/04/04 02:16:10;;;;;;;5.07;3.33;;;;;;;3.81;72.68;98117.03;5052065;28;20051;-86
2021/04/04 02:18:35;;;;;;;3.88;2.75;;;;;;;3.72;72.69;98118.53;5055571;28;20109;-86
2021/04/04 02:21:07;;;;;;;4.80;3.13;;;;;;;3.75;73.03;98124.28;5054582;28;20022;-86
2021/04/04 02:23:32;;;;;;;5.63;2.67;;;;;;;3.63;73.21;98122.72;5056589;28;20056;-84
2021/04/04 02:25:59;;;;;;;4.75;3.10;;;;;;;3.58;72.92;98090.19;5052854;28;20026;-87
2021/04/04 02:28:25;;;;;;;3.83;2.80;;;;;;;3.70;72.94;98115.25;5047992;28;20029;-86
2021/04/04 02:30:52;;;;;;;3.83;2.42;;;;;;;3.57;72.38;98093.97;5048079;28;20060;-88
2021/04/04 02:33:32;;;;;;;4.57;2.67;;;;;;;3.79;72.34;98121.88;5046717;28;20474;-87
2021/04/04 02:36:03;;;;;;;2.42;2.13;;;;;;;3.52;72.46;98096.56;5030872;28;20032;-86
2021/04/04 02:38:35;;;;;;;3.80;2.53;;;;;;;3.44;73.76;98092.41;5044668;28;20029;-86
2021/04/04 02:41:03;;;;;;;4.75;2.60;;;;;;;3.34;74.47;98113.06;5047229;28;20098;-90
2021/04/04 02:43:31;;;;;;;6.53;3.35;;;;;;;3.19;75.27;98094.69;5046371;28;20108;-87
2021/04/04 02:45:58;;;;;;;6.38;3.55;;;;;;;3.16;75.63;98116.81;5046106;28;20032;-88
2021/04/04 02:48:31;;;;;;;6.65;3.33;;;;;;;3.42;75.58;98139.66;5024084;28;20360;-87
2021/04/04 02:51:06;;;;;;;5.43;3.28;;;;;;;3.55;74.34;98136.63;5024474;28;20060;-84
2021/04/04 02:53:37;;;;;;;7.57;4.00;;;;;;;3.57;74.24;98132.63;5033901;28;20060;-86
2021/04/04 02:56:04;;;;;;;5.85;3.70;;;;;;;3.43;74.42;98146.72;5036062;28;20018;-87
2021/04/04 02:58:32;;;;;;;3.08;2.65;;;;;;;3.40;73.96;98131.81;5017527;28;20064;-85
2021/04/04 03:01:00;;;;;;;8.93;2.80;;;;;;;3.42;74.25;98139.66;5018699;28;20035;-87
2021/04/04 03:03:29;;;;;;;6.57;4.82;;;;;;;3.35;74.44;98142.56;5018838;28;21024;-87
2021/04/04 03:05:56;;;;;;;7.97;3.33;;;;;;;3.23;75.41;98145.31;5035521;28;20034;-87
2021/04/04 03:08:23;;;;;;;5.10;2.88;;;;;;;2.92;76.03;98113.41;5039449;28;20032;-87
2021/04/04 03:10:50;;;;;;;7.07;2.80;;;;;;;2.89;76.51;98129.25;5040239;28;20013;-87
2021/04/04 03:13:18;;;;;;;3.88;2.00;;;;;;;3.03;76.83;98152.22;5037986;28;20036;-85
2021/04/04 03:15:44;;;;;;;8.35;2.78;;;;;;;2.98;76.84;98160.22;5036341;28;20083;-87
2021/04/04 03:18:09;;;;;;;6.10;3.88;;;;;;;2.97;77.02;98147.81;5037447;28;20029;-86
2021/04/04 03:20:35;;;;;;;;;;;;;;;3.11;77.16;98157.22;5035084;28;20028;-84
2021/04/04 03:23:01;;;;;;;12.00;3.58;;;;;;;3.18;76.86;98153.31;5017552;28;20000;-87
2021/04/04 03:25:27;;;;;;;6.82;3.22;;;;;;;3.31;76.31;98170.28;5017075;28;20083;-86
2021/04/04 03:27:55;;;;;;;5.72;3.05;;;;;;;3.45;74.95;98164.31;5016837;28;20021;-86
2021/04/04 03:30:43;;;;;;;3.03;2.28;;;;;;;3.37;75.20;98158.50;5034587;28;20075;-86
2021/04/04 03:33:10;;;;;;;5.68;2.88;;;;;;;3.43;74.56;98171.03;5033530;28;20864;-87
2021/04/04 03:35:38;;;;;;;4.32;2.88;;;;;;;3.09;75.20;98137.75;5032000;28;20068;-84
2021/04/04 03:38:05;;;;;;;3.67;2.53;;;;;;;3.23;76.11;98150.69;5015688;28;20030;-88
2021/04/04 03:40:31;;;;;;;5.72;3.15;;;;;;;3.14;76.02;98143.25;5033899;28;20025;-88
2021/04/04 03:42:59;;;;;;;4.82;2.22;;;;;;;3.04;76.10;98137.63;5032514;28;20041;-85
2021/04/04 03:45:52;;;;;;;6.10;2.67;;;;;;;3.28;76.26;98168.91;5015155;28;20025;-85
2021/04/04 03:48:29;;;;;;;7.45;3.50;;;;;;;3.02;76.35;98124.41;5015922;28;20033;-85
2021/04/04 03:50:56;;;;;;;8.05;4.32;;;;;;;3.32;76.09;98158.44;5032869;28;20038;-85
2021/04/04 03:53:27;;;;;;;5.60;3.15;;;;;;;3.49;74.66;98167.38;5033264;28;20021;-87
2021/04/04 03:55:55;;;;;;;4.70;2.80;;;;;;;3.51;74.60;98165.25;5036234;28;20105;-87
2021/04/04 03:58:26;;;;;;;4.80;2.85;;;;;;;3.43;75.46;98173.75;5018292;28;20021;-86
2021/04/04 04:00:53;;;;;;;7.57;3.60;;;;;;;3.20;77.05;98175.50;5033018;28;20014;-88
2021/04/04 04:03:20;;;;;;;8.27;3.80;;;;;;;3.20;77.25;98186.31;5053013;28;20040;-85
2021/04/04 04:05:47;;;;;;;9.93;4.13;;;;;;;2.85;77.72;98144.34;5052177;28;20026;-86
2021/04/04 04:08:15;;;;;;;7.53;4.07;;;;;;;2.77;77.73;98142.00;5054127;28;20020;-86
2021/04/04 04:10:44;;;;;;;5.18;3.55;;;;;;;2.72;78.17;98133.81;5053489;28;20040;-86
2021/04/04 04:13:14;;;;;;;10.27;4.03;;;;;;;2.80;78.20;98158.53;5033668;28;20052;-87
2021/04/04 04:15:40;;;;;;;7.38;3.03;;;;;;;2.86;78.12;98157.59;5051277;28;20025;-87
2021/04/04 04:18:07;;;;;;;7.93;3.30;;;;;;;2.91;77.85;98140.66;5051001;28;20030;-87
2021/04/04 04:20:33;;;;;;;6.30;3.65;;;;;;;3.03;77.15;98142.25;5033302;28;20103;-87
2021/04/04 04:23:04;;;;;;;4.03;3.53;;;;;;;3.28;76.44;98176.19;5032077;28;20029;-86
2021/04/04 04:25:30;;;;;;;3.15;2.40;;;;;;;3.08;76.72;98172.06;5033750;28;20048;-87
2021/04/04 04:27:57;;;;;;;8.27;4.30;;;;;;;3.03;76.97;98174.66;5052055;28;20021;-85
2021/04/04 04:30:24;;;;;;;4.97;3.30;;;;;;;2.82;77.17;98142.13;5052396;28;20028;-87
2021/04/04 04:32:54;;;;;;;6.10;2.83;;;;;;;2.80;77.35;98144.22;5051914;28;20018;-86
2021/04/04 04:35:22;;;;;;;5.22;3.45;;;;;;;2.73;77.71;98141.66;5035821;28;20026;-86
2021/04/04 04:37:51;;;;;;;4.82;2.85;;;;;;;2.75;78.02;98155.75;5036764;28;20037;-87
2021/04/04 04:40:21;;;;;;;3.95;2.33;;;;;;;2.74;78.02;98162.22;5056135;28;20033;-87
2021/04/04 04:42:54;;;;;;;3.80;2.85;;;;;;;2.86;78.20;98168.38;5059167;28;20013;-83
2021/04/04 04:45:29;;;;;;;10.38;3.08;;;;;;;3.08;78.29;98182.84;5059300;28;20018;-85
2021/04/04 04:47:56;;;;;;;4.32;2.60;;;;;;;2.92;78.55;98155.78;5057261;28;20104;-84
2021/04/04 04:50:22;;;;;;;7.30;3.20;;;;;;;3.08;78.62;98153.13;5036361;28;20053;-86
2021/04/04 04:52:48;;;;;;;5.88;2.90;;;;;;;3.07;78.33;98165.00;5056077;28;20088;-85
2021/04/04 04:55:35;;;;;;;6.45;3.15;;;;;;;3.09;78.11;98162.06;5056230;28;20033;-87
2021/04/04 04:58:02;;;;;;;9.35;4.03;;;;;;;3.24;77.91;98160.47;5036422;28;20034;-85
2021/04/04 05:00:30;;;;;;;3.92;2.70;;;;;;;3.45;77.50;98195.94;5053497;28;20085;-85
2021/04/04 05:02:56;;;;;;;5.30;3.83;;;;;;;3.32;76.93;98161.13;5053133;28;20059;-86
2021/04/04 05:05:22;;;;;;;2.83;2.35;;;;;;;3.44;76.84;98187.03;5056120;28;20025;-87
2021/04/04 05:07:47;;;;;;;;;;;;;;;3.65;76.84;98193.59;5034114;28;20025;-87
2021/04/04 05:10:14;;;;;;;6.97;3.13;;;;;;;3.41;76.73;98156.97;5051960;28;19944;-89
2021/04/04 05:12:51;;;;;;;4.38;2.97;;;;;;;3.56;76.88;98173.44;5050599;28;20029;-88
2021/04/04 05:15:19;;;;;;;4.10;2.70;;;;;;;3.60;76.85;98174.59;5051247;28;20026;-87
2021/04/04 05:17:45;;;;;;;7.20;3.67;;;;;;;3.73;77.26;98176.94;5051129;28;20021;-88
2021/04/04 05:20:12;;;;;;;7.13;4.55;;;;;;;3.88;77.02;98188.03;5051283;28;20051;-88
2021/04/04 05:22:38;;;;;;;5.47;3.92;;;;;;;3.81;76.98;98164.91;5050666;28;20025;-88
2021/04/04 05:25:08;;;;;;;5.97;4.20;;;;;;;3.98;76.85;98193.59;5031850;28;20026;-88
2021/04/04 05:27:34;;;;;;;5.70;3.70;;;;;;;4.12;76.33;98205.72;5049879;28;20026;-88
2021/04/04 05:30:11;;;;;;;5.68;3.63;;;;;;;4.04;76.38;98184.47;5030994;28;20025;-86
2021/04/04 05:32:45;;;;;;;6.85;3.60;;;;;;;4.19;76.77;98186.63;5032183;28;20056;-87
2021/04/04 05:35:16;;;;;;;4.93;3.42;;;;;;;4.33;76.13;98202.25;5050905;28;20041;-89
2021/04/04 05:37:43;;;;;;;6.47;3.50;;;;;;;4.43;75.67;98225.13;5050847;28;20013;-89
2021/04/04 05:40:28;;;;;;;4.78;2.60;;;;;;;4.50;75.72;98217.63;5051703;28;20027;-88
2021/04/04 05:42:59;;;;;;;7.53;4.40;;;;;;;4.51;75.49;98225.50;5033145;28;20056;-87
2021/04/04 05:45:46;;;;;;;4.47;3.30;;;;;;;4.62;74.94;98232.72;5049579;28;20034;-87
2021/04/04 05:48:42;;;;;;;9.35;3.95;;;;;;;4.70;74.08;98228.72;5050299;28;20056;-87
2021/04/04 05:51:49;;;;;;;6.35;3.22;;;;;;;4.79;73.77;98232.69;5049799;28;20042;-86
2021/04/04 05:54:52;;;;;;;3.75;2.55;;;;;;;4.90;73.48;98239.03;5013961;28;20105;-86
2021/04/04 05:57:29;;;;;;;6.90;4.25;;;;;;;4.91;73.11;98235.25;5051890;28;20113;-87
2021/04/04 06:00:00;;;;;;;6.38;3.80;;;;;;;4.83;73.22;98228.38;5047559;28;20540;-86
2021/04/04 06:03:04;;;;;;;9.68;3.92;;;;;;;5.00;72.97;98242.69;5047439;28;20021;-85
2021/04/04 06:06:07;;;;;;;3.70;3.10;;;;;;;5.20;69.87;98240.22;5049062;28;20029;-87
2021/04/04 06:08:54;;;;;;;2.92;2.47;;;;;;;5.35;69.37;98237.69;5030409;28;20045;-88
2021/04/04 06:11:52;;;;;;;4.63;3.28;;;;;;;5.50;67.57;98236.19;5047391;28;20032;-87
2021/04/04 06:14:42;;;;;;;5.15;3.03;;;;;;;5.63;66.61;98238.50;5025383;28;20145;-86
2021/04/04 06:17:23;;;;;;;3.72;2.53;;;;;;;5.64;67.20;98235.53;5022066;28;20022;-86
2021/04/04 06:20:31;;;;;;;5.07;3.05;;;;;;;5.70;66.46;98244.56;5013093;28;20041;-86
2021/04/04 06:23:11;;;;;;;4.22;2.97;;;;;;;5.75;65.20;98231.03;5019639;28;20053;-86
2021/04/04 06:25:49;;;;;;;5.40;2.97;;;;;;;5.85;65.68;98236.53;5018254;28;20071;-87
2021/04/04 06:28:14;;;;;;;5.13;3.30;;;;;;;5.92;67.74;98239.88;5037482;28;20025;-86
2021/04/04 06:31:08;;;;;;;4.10;2.75;;;;;;;6.23;64.99;98239.06;5021758;28;20815;-87
2021/04/04 06:33:40;;;;;;;4.03;2.80;;;;;;;6.34;66.96;98239.94;5018460;28;20029;-87
2021/04/04 06:36:16;;;;;;;5.75;3.00;;;;;;;6.27;63.67;98240.16;5016277;28;20025;-83
2021/04/04 06:39:01;;;;;;;4.10;2.63;;;;;;;6.54;64.74;98239.28;5033913;28;20021;-86
2021/04/04 06:41:48;;;;;;;4.25;3.03;;;;;;;6.71;64.12;98237.19;5033462;28;20037;-87
2021/04/04 06:44:13;;;;;;;6.07;2.90;;;;;;;6.94;61.54;98236.78;5037106;28;20033;-87
2021/04/04 06:46:58;;;;;;;4.05;2.35;;;;;;;6.96;60.44;98232.69;5016060;28;21527;-86
2021/04/04 06:49:33;;;;;;;3.05;2.25;;;;;;;6.84;60.96;98234.00;5014065;28;20152;-83
2021/04/04 06:51:58;;;;;;;4.60;3.10;;;;;;;6.83;62.03;98237.78;5029326;28;20036;-78
2021/04/04 06:54:31;;;;;;;6.50;2.97;;;;;;;7.04;59.68;98236.00;5011927;28;20025;-75
2021/04/04 06:57:18;;;;;;;4.30;2.55;;;;;;;6.96;60.94;98237.31;5030035;28;20025;-74
2021/04/04 06:59:57;;;;;;;4.40;2.78;;;;;;;6.95;61.35;98241.13;5028721;28;20041;-75
2021/04/04 07:02:24;;;;;;;3.13;2.55;;;;;;;6.93;61.45;98226.97;5038135;28;20119;-76
2021/04/04 07:04:55;;;;;;;3.83;2.63;;;;;;;7.10;61.15;98238.47;5033522;28;20021;-75
2021/04/04 07:07:42;;;;;;;3.30;2.58;;;;;;;7.37;60.33;98239.09;5030949;28;20039;-76
2021/04/04 07:10:27;;;;;;;3.67;2.38;;;;;;;7.94;57.59;98238.13;5028187;28;20029;-76
2021/04/04 07:13:11;;;;;;;2.85;2.30;;;;;;;8.29;57.55;98240.91;5026946;28;20102;-84
2021/04/04 07:16:06;;;;;;;4.63;3.00;;;;;;;8.21;54.12;98241.41;5026003;28;20562;-76
2021/04/04 07:19:13;;;;;;;5.13;2.50;;;;;;;8.51;54.30;98244.16;5011048;28;20030;-78
2021/04/04 07:22:22;;;;;;;3.30;2.20;;;;;;;8.76;52.16;98234.28;4996677;28;20045;-81
2021/04/04 07:24:59;;;;;;;2.60;2.05;;;;;;;8.64;52.14;98242.78;4975112;28;20040;-75
2021/04/04 07:27:42;;;;;;;2.88;2.35;;;;;;;9.02;54.52;98244.03;5027506;28;20379;-75
2021/04/04 07:30:31;;;;;;;2.75;2.20;;;;;;;9.17;51.75;98235.78;5027446;28;20037;-76
2021/04/04 07:33:26;;;;;;;3.28;2.08;;;;;;;9.55;56.56;98247.91;5027532;28;20120;-75
2021/04/04 07:36:19;;;;;;;3.05;2.30;;;;;;;10.01;50.58;98245.69;5008696;28;20465;-75
2021/04/04 07:39:03;;;;;;;3.60;2.45;;;;;;;10.37;52.88;98249.78;5032516;28;20109;-76
2021/04/04 07:42:05;;;;;;;4.50;2.67;;;;;;;10.81;50.19;98251.59;5031169;28;20030;-77
2021/04/04 07:44:38;;;;;;;3.78;2.47;;;;;;;11.41;51.81;98250.03;5031644;28;20037;-74
2021/04/04 07:47:20;;;;;;;2.35;2.10;;;;;;;11.68;46.80;98253.00;5031369;28;20056;-77
2021/04/04 07:49:51;;;;;;;4.47;1.80;;;;;;;11.88;46.26;98251.91;5031160;28;20070;-86
2021/04/04 07:52:53;;;;;;;2.83;2.47;;;;;;;12.13;45.04;98248.78;5031114;28;20024;-77
2021/04/04 07:55:25;;;;;;;2.65;2.00;;;;;;;12.11;44.58;98256.50;5030981;28;20041;-75
2021/04/04 07:58:12;;;;;;;2.67;2.03;;;;;;;12.05;44.56;98249.47;5031082;28;20033;-76
2021/04/04 08:00:43;;;;;;;3.38;2.35;;;;;;;12.69;44.35;98246.72;5030218;28;20025;-75
2021/04/04 08:03:14;;;;;;;1.92;1.73;;;;;;;13.41;41.54;98242.34;5031765;28;20371;-75
2021/04/04 08:05:48;;;;;;;3.63;2.22;;;;;;;13.47;38.54;98243.03;5030815;28;20036;-76
2021/04/04 08:08:28;;;;;;;5.03;2.25;;;;;;;13.64;37.67;98247.91;5031070;28;20022;-81
2021/04/04 08:11:13;;;;;;;3.08;2.10;;;;;;;14.04;38.53;98257.19;5033865;28;20025;-76
2021/04/04 08:13:47;;;;;;;2.38;1.88;;;;;;;14.47;41.32;98247.41;5034148;28;20115;-77
2021/04/04 08:16:43;;;;;;;3.70;1.83;;;;;;;15.31;37.32;98241.84;5033297;28;20041;-79
2021/04/04 08:19:14;;;;;;;2.80;2.33;;;;;;;14.74;32.05;98252.75;5016771;28;20033;-79
2021/04/04 08:21:53;;;;;;;6.35;2.10;;;;;;;13.35;35.29;98248.25;5033396;28;20083;-76
2021/04/04 08:24:37;;;;;;;2.88;1.50;;;;;;;11.86;35.53;98232.22;5034705;28;20025;-74
2021/04/04 08:27:30;;;;;;;4.28;1.75;;;;;;;12.00;36.39;98233.06;5033703;28;20048;-74
2021/04/04 08:30:17;;;;;;;2.33;1.75;;;;;;;11.90;35.24;98238.72;5035081;28;20081;-75
2021/04/04 08:32:49;;;;;;;2.55;1.77;;;;;;;10.53;39.06;98229.41;5041522;28;20029;-87
2021/04/04 08:35:26;;;;;;;3.53;1.40;;;;;;;10.76;37.86;98216.88;5038914;28;20052;-78
2021/04/04 08:38:00;;;;;;;1.50;1.20;;;;;;;10.91;38.44;98233.13;5032715;28;20025;-75
2021/04/04 08:40:26;;;;;;;2.08;1.58;;;;;;;10.91;40.11;98232.28;5015263;28;20036;-74
2021/04/04 08:42:52;;;;;;;2.53;1.58;;;;;;;10.66;39.95;98231.47;5032745;28;20058;-75
2021/04/04 08:45:39;;;;;;;1.90;1.35;;;;;;;10.04;39.26;98247.84;5013497;28;20386;-76
2021/04/04 08:48:05;;;;;;;2.90;1.80;;;;;;;9.42;41.00;98249.31;5030183;28;20033;-75
2021/04/04 08:50:33;;;;;;;3.47;1.90;;;;;;;9.55;41.60;98226.03;5028971;28;20139;-74
2021/04/04 08:53:17;;;;;;;1.33;1.23;;;;;;;9.06;42.06;98234.19;5029066;28;20089;-74
2021/04/04 08:55:43;;;;;;;2.35;1.75;;;;;;;9.02;42.33;98228.44;5029817;28;20367;-75
2021/04/04 08:58:12;;;;;;;3.10;2.03;;;;;;;9.15;42.84;98230.59;5030109;28;20025;-76
2021/04/04 09:00:39;;;;;;;3.00;2.05;;;;;;;9.84;45.79;98239.78;5030516;28;20021;-74
2021/04/04 09:03:10;;;;;;;2.35;1.85;;;;;;;11.07;46.35;98236.50;5031866;28;20041;-75
2021/04/04 09:05:37;;;;;;;2.78;1.88;;;;;;;11.07;39.69;98220.91;5032123;28;20033;-74
2021/04/04 09:08:04;;;;;;;2.30;1.85;;;;;;;11.71;41.05;98233.25;5032343;28;20033;-76
2021/04/04 09:10:33;;;;;;;4.60;1.95;;;;;;;12.19;37.96;98220.97;5032617;28;20026;-76
2021/04/04 09:12:59;;;;;;;1.65;1.40;;;;;;;11.69;35.30;98227.19;5033134;28;20064;-75
2021/04/04 09:15:25;;;;;;;1.88;1.33;;;;;;;11.13;36.45;98221.63;5032673;28;20099;-75
2021/04/04 09:17:57;;;;;;;1.48;1.38;;;;;;;11.17;35.84;98220.78;5036912;28;20025;-77
2021/04/04 09:20:31;;;;;;;2.55;1.30;;;;;;;11.68;35.44;98226.38;5036875;28;20026;-75
2021/04/04 09:22:59;;;;;;;6.82;2.20;;;;;;;11.39;36.88;98212.00;5032366;28;20044;-76
2021/04/04 09:25:27;;;;;;;2.25;1.48;;;;;;;11.07;37.33;98209.94;5032507;28;20037;-76
2021/04/04 09:27:57;;;;;;;1.75;1.30;;;;;;;10.82;38.14;98212.97;5032287;28;20036;-76
2021/04/04 09:30:23;;;;;;;2.03;1.65;;;;;;;10.48;38.29;98215.78;5032774;28;20478;-76
2021/04/04 09:32:58;;;;;;;2.60;1.63;;;;;;;10.24;38.75;98223.13;5033194;28;20056;-74
2021/04/04 09:35:23;;;;;;;1.80;1.50;;;;;;;10.57;37.88;98215.97;5032357;28;20128;-75
2021/04/04 09:37:50;;;;;;;2.30;1.02;;;;;;;10.45;41.42;98219.09;5032282;28;20104;-75
2021/04/04 09:40:18;;;;;;;1.50;1.20;;;;;;;10.57;38.38;98210.50;5032236;28;20022;-75
2021/04/04 09:42:45;;;;;;;2.55;1.58;;;;;;;10.86;37.96;98208.56;5032156;28;20080;-76
2021/04/04 09:45:16;;;;;;;2.03;1.17;;;;;;;12.03;39.67;98213.31;5032044;28;20032;-74
2021/04/04 09:47:42;;;;;;;1.52;1.13;;;;;;;13.46;33.94;98213.13;5014186;28;20071;-75
2021/04/04 09:50:22;;;;;;;1.42;0.93;;;;;;;14.41;33.20;98208.16;5031785;28;20049;-75
2021/04/04 09:52:48;;;;;;;1.52;1.27;;;;;;;14.24;31.40;98218.22;5031773;28;20030;-77
2021/04/04 09:55:18;;;;;;;1.35;1.23;;;;;;;14.69;31.35;98206.03;5032025;28;20025;-75
2021/04/04 09:57:52;;;;;;;2.60;1.30;;;;;;;14.46;28.74;98208.03;5031188;28;20025;-75
2021/04/04 10:00:26;;;;;;;1.27;0.88;;;;;;;14.07;29.61;98209.81;5032085;28;20469;-76
2021/04/04 10:02:55;;;;;;;2.10;1.42;;;;;;;13.28;31.11;98199.19;5031822;28;20080;-75
2021/04/04 10:05:25;;;;;;;1.27;1.00;;;;;;;13.36;30.46;98197.69;5032042;28;20371;-76
2021/04/04 10:07:51;;;;;;;1.33;1.20;;;;;;;13.30;30.33;98191.47;5031828;28;20040;-76
2021/04/04 10:10:30;;;;;;;1.20;1.10;;;;;;;12.81;30.20;98191.38;5031620;28;20017;-75
2021/04/04 10:12:58;;;;;;;1.13;0.85;;;;;;;13.16;30.40;98200.84;5031773;28;20068;-76
2021/04/04 10:15:24;;;;;;;2.38;1.55;;;;;;;12.81;29.87;98202.34;5031562;28;20037;-76
2021/04/04 10:17:57;;;;;;;2.45;0.82;;;;;;;11.92;31.28;98181.69;5031450;28;22117;-74
2021/04/04 10:20:31;;;;;;;1.70;1.60;;;;;;;11.69;31.70;98197.88;5031367;28;20034;-75
2021/04/04 10:22:56;;;;;;;2.85;1.75;;;;;;;12.32;31.07;98187.31;5031065;28;20082;-76
2021/04/04 10:25:22;;;;;;;0.75;0.75;;;;;;;12.38;29.91;98177.03;5031400;28;20021;-76
2021/04/04 10:27:56;;;;;;;1.90;0.93;;;;;;;12.49;29.57;98175.75;5031244;28;20367;-74
2021/04/04 10:30:24;;;;;;;2.20;1.10;;;;;;;12.78;28.45;98179.03;5031324;28;20033;-76
2021/04/04 10:32:51;;;;;;;1.10;0.80;;;;;;;12.50;28.24;98171.09;5031123;28;20022;-74
2021/04/04 10:35:34;;;;;;;1.05;0.68;;;;;;;11.02;32.48;98179.91;5031434;28;20536;-75
2021/04/04 10:38:12;;;;;;;2.50;1.25;;;;;;;10.79;32.73;98182.63;5031048;28;20091;-75
2021/04/04 10:40:50;;;;;;;2.22;0.90;;;;;;;10.25;33.13;98181.00;5013537;28;20405;-75
2021/04/04 10:43:20;;;;;;;4.97;1.35;;;;;;;10.37;33.80;98167.75;5031037;28;20033;-74
2021/04/04 10:46:10;;;;;;;0.95;0.80;;;;;;;10.87;33.75;98171.06;5031120;28;20056;-75
2021/04/04 10:48:40;;;;;;;1.48;1.38;;;;;;;10.83;32.68;98156.31;5031163;28;20070;-74
2021/04/04 10:51:08;;;;;;;2.30;1.05;;;;;;;11.34;32.92;98157.28;5013151;28;20441;-75
2021/04/04 10:53:34;;;;;;;0.68;0.68;;;;;;;11.63;31.05;98157.97;5031249;28;20022;-74
2021/04/04 10:56:00;;;;;;;1.77;1.15;;;;;;;11.56;32.11;98141.06;5031198;28;20030;-75
2021/04/04 10:58:27;;;;;;;2.25;1.35;;;;;;;11.90;31.07;98140.06;5030639;28;20046;-76
2021/04/04 11:00:58;;;;;;;1.88;1.38;;;;;;;12.02;30.65;98127.50;5030861;28;20018;-75
2021/04/04 11:03:27;;;;;;;1.75;0.80;;;;;;;11.89;30.71;98132.94;5022892;28;20037;-75
2021/04/04 11:05:53;;;;;;;2.00;1.08;;;;;;;11.29;30.28;98138.19;5027329;28;20053;-74
2021/04/04 11:08:20;;;;;;;0.70;0.60;;;;;;;11.40;30.86;98136.13;5023562;28;20021;-75
2021/04/04 11:10:46;;;;;;;1.10;1.10;;;;;;;11.03;29.60;98134.16;5026786;28;20486;-76
2021/04/04 11:13:17;;;;;;;0.77;0.77;;;;;;;10.70;29.42;98127.75;5028501;28;20030;-75
2021/04/04 11:15:50;;;;;;;1.02;0.77;;;;;;;10.50;29.88;98137.00;5025870;28;20021;-75
2021/04/04 11:18:25;;;;;;;1.77;0.75;;;;;;;10.12;29.95;98137.91;5028469;28;20122;-76
2021/04/04 11:20:54;;;;;;;1.17;0.70;;;;;;;10.17;31.52;98126.97;5010453;28;20041;-74
2021/04/04 11:23:21;;;;;;;2.50;0.88;;;;;;;10.28;31.83;98135.84;5025876;28;20091;-74
2021/04/04 11:25:46;;;;;;;0.82;0.75;;;;;;;9.93;32.08;98128.81;5027954;28;20029;-75
2021/04/04 11:28:24;;;;;;;1.08;0.90;;;;;;;9.93;32.96;98137.00;5028883;28;20041;-76
2021/04/04 11:30:50;;;;;;;1.15;0.68;;;;;;;10.06;32.94;98150.78;5026290;28;20036;-75
2021/04/04 11:33:16;;;;;;;1.60;1.13;;;;;;;9.96;33.77;98123.56;5028185;28;20064;-75
2021/04/04 11:36:08;;;;;;;0.63;0.63;;;;;;;9.91;33.34;98133.72;5029552;28;20061;-76
2021/04/04 11:38:37;;;;;;;2.42;1.20;;;;;;;9.92;33.87;98138.91;5029688;28;20052;-75
2021/04/04 11:41:22;;;;;;;1.67;1.42;;;;;;;9.67;33.61;98120.00;5032991;28;20040;-74
2021/04/04 11:43:54;;;;;;;1.27;1.15;;;;;;;9.90;33.96;98123.91;5030338;28;20073;-76
2021/04/04 11:46:47;;;;;;;1.02;0.80;;;;;;;9.82;33.62;98119.06;5028959;28;20120;-75
2021/04/04 11:49:31;;;;;;;2.38;1.55;;;;;;;9.98;34.94;98115.09;5010879;28;20053;-76
2021/04/04 11:51:59;;;;;;;1.17;0.73;;;;;;;10.01;34.35;98120.78;5027754;28;20026;-75
2021/04/04 11:54:44;;;;;;;0.75;0.75;;;;;;;9.85;35.07;98115.75;5011046;28;20116;-75
2021/04/04 11:57:16;;;;;;;0.82;0.73;;;;;;;9.87;34.01;98102.59;5029059;28;20026;-75
2021/04/04 11:59:42;;;;;;;3.35;1.77;;;;;;;10.18;34.71;98099.31;5028410;28;20049;-74
2021/04/04 12:02:13;;;;;;;1.77;0.82;;;;;;;9.89;35.64;98108.63;5013070;28;20371;-74
2021/04/04 12:07:14;;;;;;;2.58;1.90;;;;;;;9.77;34.71;98102.72;5042723;28;20076;-76